createdAt,value
2019-03-08T00:00:26.651Z,9.62
2019-03-08T00:01:26.617Z,9.62
2019-03-08T00:02:26.570Z,9.65
2019-03-08T00:03:26.554Z,9.59
2019-03-08T00:04:26.530Z,9.66
2019-03-08T00:05:26.507Z,9.57
2019-03-08T00:06:26.484Z,9.60
2019-03-08T00:07:26.464Z,9.63
2019-03-08T00:08:26.450Z,9.55
2019-03-08T00:09:26.422Z,9.62
2019-03-08T00:10:26.406Z,9.57
2019-03-08T00:11:26.382Z,9.57
2019-03-08T00:12:26.362Z,9.63
2019-03-08T00:13:26.339Z,9.70
2019-03-08T00:14:26.321Z,9.62
2019-03-08T00:15:26.299Z,9.62
2019-03-08T00:16:26.278Z,9.59
2019-03-08T00:17:26.265Z,9.55
2019-03-08T00:18:26.237Z,9.63
2019-03-08T00:19:26.226Z,9.60
2019-03-08T00:20:26.195Z,9.59
2019-03-08T00:21:26.177Z,9.65
2019-03-08T00:22:26.155Z,9.52
2019-03-08T00:23:26.138Z,9.57
2019-03-08T00:24:26.119Z,9.55
2019-03-08T00:25:26.098Z,9.59
2019-03-08T00:26:26.069Z,9.62
2019-03-08T00:27:26.052Z,9.55
2019-03-08T00:28:26.028Z,9.57
2019-03-08T00:29:26.010Z,9.66
2019-03-08T00:30:25.992Z,9.65
2019-03-08T00:31:25.966Z,9.60
2019-03-08T00:32:25.944Z,9.57
2019-03-08T00:33:25.926Z,9.63
2019-03-08T00:34:25.906Z,9.60
2019-03-08T00:35:25.884Z,9.55
2019-03-08T00:36:25.862Z,9.62
2019-03-08T00:37:25.842Z,9.62
2019-03-08T00:38:25.833Z,9.57
2019-03-08T00:39:25.802Z,9.62
2019-03-08T00:40:25.786Z,9.55
2019-03-08T00:41:25.761Z,9.54
2019-03-08T00:42:25.738Z,9.40
2019-03-08T00:43:25.720Z,9.41
2019-03-08T00:44:25.697Z,9.45
2019-03-08T00:45:25.676Z,9.42
2019-03-08T00:46:25.657Z,9.44
2019-03-08T00:47:25.636Z,9.37
2019-03-08T00:48:25.615Z,9.29
2019-03-08T00:49:25.597Z,9.40
2019-03-08T00:50:25.573Z,9.33
2019-03-08T00:51:25.552Z,9.34
2019-03-08T00:52:25.532Z,9.30
2019-03-08T00:53:25.512Z,9.27
2019-03-08T00:54:25.494Z,9.30
2019-03-08T00:55:25.477Z,9.24
2019-03-08T00:56:25.463Z,9.30
2019-03-08T00:57:25.427Z,9.22
2019-03-08T00:58:25.417Z,9.24
2019-03-08T00:59:25.388Z,9.19
2019-03-08T01:00:25.368Z,9.22
2019-03-08T01:01:25.346Z,9.15
2019-03-08T01:02:25.325Z,9.23
2019-03-08T01:03:25.308Z,9.18
2019-03-08T01:04:25.285Z,9.18
2019-03-08T01:05:25.264Z,9.14
2019-03-08T01:06:25.244Z,9.08
2019-03-08T01:07:25.228Z,9.04
2019-03-08T01:08:25.198Z,9.06
2019-03-08T01:09:25.179Z,9.11
2019-03-08T01:10:25.208Z,9.03
2019-03-08T01:11:25.140Z,9.09
2019-03-08T01:12:25.115Z,9.03
2019-03-08T01:13:25.104Z,9.06
2019-03-08T01:14:25.074Z,9.08
2019-03-08T01:15:25.060Z,9.14
2019-03-08T01:16:26.066Z,9.14
2019-03-08T01:17:25.020Z,9.18
2019-03-08T01:18:24.995Z,9.23
2019-03-08T01:19:24.975Z,9.23
2019-03-08T01:20:24.950Z,9.18
2019-03-08T01:21:24.931Z,9.14
2019-03-08T01:22:24.910Z,9.16
2019-03-08T01:23:24.890Z,9.15
2019-03-08T01:24:24.869Z,9.18
2019-03-08T01:25:24.846Z,9.18
2019-03-08T01:26:24.831Z,9.23
2019-03-08T01:27:24.809Z,9.24
2019-03-08T01:28:24.787Z,9.23
2019-03-08T01:29:24.766Z,9.19
2019-03-08T01:30:24.743Z,9.19
2019-03-08T01:31:24.720Z,9.26
2019-03-08T01:32:24.697Z,9.26
2019-03-08T01:33:24.680Z,9.32
2019-03-08T01:34:24.658Z,9.32
2019-03-08T01:35:24.637Z,9.27
2019-03-08T01:36:24.617Z,9.23
2019-03-08T01:37:24.597Z,9.27
2019-03-08T01:38:24.579Z,9.37
2019-03-08T01:39:24.561Z,9.26
2019-03-08T01:40:24.535Z,9.23
2019-03-08T01:41:24.517Z,9.33
2019-03-08T01:42:24.493Z,9.33
2019-03-08T01:43:24.473Z,9.18
2019-03-08T01:44:24.452Z,9.16
2019-03-08T01:45:24.432Z,9.24
2019-03-08T01:46:24.486Z,9.22
2019-03-08T01:47:24.392Z,9.22
2019-03-08T01:48:24.370Z,9.16
2019-03-08T01:49:24.349Z,9.16
2019-03-08T01:50:30.598Z,9.09
2019-03-08T01:51:24.307Z,9.11
2019-03-08T01:52:43.490Z,9.06
2019-03-08T01:53:24.265Z,9.01
2019-03-08T01:54:24.304Z,9.04
2019-03-08T01:55:24.222Z,9.01
2019-03-08T01:56:24.331Z,9.06
2019-03-08T01:57:24.184Z,9.04
2019-03-08T01:58:24.207Z,8.95
2019-03-08T01:59:24.146Z,9.01
2019-03-08T02:00:24.116Z,9.01
2019-03-08T02:01:24.095Z,9.01
2019-03-08T02:02:24.076Z,8.93
2019-03-08T02:03:24.057Z,8.83
2019-03-08T02:04:24.040Z,8.83
2019-03-08T02:05:24.021Z,8.90
2019-03-08T02:06:23.993Z,8.86
2019-03-08T02:07:23.974Z,8.80
2019-03-08T02:08:23.948Z,8.80
2019-03-08T02:09:23.926Z,8.83
2019-03-08T02:10:23.910Z,8.77
2019-03-08T02:11:23.890Z,8.81
2019-03-08T02:12:23.872Z,8.80
2019-03-08T02:13:23.848Z,8.93
2019-03-08T02:14:23.825Z,8.93
2019-03-08T02:15:23.803Z,8.80
2019-03-08T02:16:23.794Z,8.85
2019-03-08T02:17:23.761Z,8.88
2019-03-08T02:18:23.744Z,8.75
2019-03-08T02:19:23.722Z,8.83
2019-03-08T02:20:23.698Z,8.86
2019-03-08T02:21:23.680Z,8.90
2019-03-08T02:22:23.704Z,8.89
2019-03-08T02:23:23.640Z,8.88
2019-03-08T02:24:23.616Z,8.86
2019-03-08T02:25:23.594Z,8.85
2019-03-08T02:26:23.576Z,8.90
2019-03-08T02:27:23.554Z,8.85
2019-03-08T02:28:23.529Z,8.86
2019-03-08T02:29:23.511Z,8.88
2019-03-08T02:30:23.489Z,8.88
2019-03-08T02:31:23.470Z,8.90
2019-03-08T02:32:23.452Z,8.86
2019-03-08T02:33:23.428Z,8.83
2019-03-08T02:34:23.405Z,8.86
2019-03-08T02:35:23.399Z,8.83
2019-03-08T02:36:23.367Z,8.83
2019-03-08T02:37:23.343Z,8.83
2019-03-08T02:38:23.322Z,8.90
2019-03-08T02:39:23.305Z,8.85
2019-03-08T02:40:23.281Z,8.92
2019-03-08T02:41:23.284Z,8.86
2019-03-08T02:42:23.239Z,8.86
2019-03-08T02:43:23.228Z,8.83
2019-03-08T02:44:23.197Z,8.86
2019-03-08T02:45:23.177Z,8.88
2019-03-08T02:46:23.157Z,8.90
2019-03-08T02:47:23.139Z,8.83
2019-03-08T02:48:23.119Z,8.86
2019-03-08T02:49:23.095Z,8.85
2019-03-08T02:50:23.075Z,8.85
2019-03-08T02:51:23.053Z,8.78
2019-03-08T02:52:23.034Z,8.78
2019-03-08T02:53:23.012Z,8.85
2019-03-08T02:54:22.990Z,8.85
2019-03-08T02:55:22.970Z,8.83
2019-03-08T02:56:22.951Z,8.85
2019-03-08T02:57:22.928Z,8.86
2019-03-08T02:58:22.909Z,8.92
2019-03-08T02:59:22.888Z,8.92
2019-03-08T03:00:22.864Z,8.88
2019-03-08T03:01:22.844Z,8.89
2019-03-08T03:02:22.823Z,8.99
2019-03-08T03:03:22.804Z,8.88
2019-03-08T03:04:22.785Z,8.96
2019-03-08T03:05:22.763Z,8.90
2019-03-08T03:06:22.739Z,8.93
2019-03-08T03:07:22.719Z,8.93
2019-03-08T03:08:22.698Z,8.92
2019-03-08T03:09:22.680Z,8.90
2019-03-08T03:10:22.659Z,8.99
2019-03-08T03:11:22.633Z,8.85
2019-03-08T03:12:22.613Z,8.96
2019-03-08T03:13:22.595Z,9.01
2019-03-08T03:14:22.573Z,8.96
2019-03-08T03:15:22.551Z,8.95
2019-03-08T03:16:22.550Z,8.93
2019-03-08T03:17:22.508Z,9.04
2019-03-08T03:18:22.488Z,9.06
2019-03-08T03:19:22.470Z,9.03
2019-03-08T03:20:22.453Z,9.08
2019-03-08T03:21:22.425Z,9.09
2019-03-08T03:22:22.413Z,9.12
2019-03-08T03:23:22.384Z,9.03
2019-03-08T03:24:22.361Z,9.14
2019-03-08T03:25:22.343Z,9.12
2019-03-08T03:26:22.321Z,9.06
2019-03-08T03:27:22.301Z,9.06
2019-03-08T03:28:22.279Z,9.16
2019-03-08T03:29:22.262Z,9.14
2019-03-08T03:30:22.285Z,9.16
2019-03-08T03:31:22.219Z,9.14
2019-03-08T03:32:22.203Z,9.18
2019-03-08T03:33:22.185Z,9.16
2019-03-08T03:34:22.154Z,9.18
2019-03-08T03:35:22.133Z,9.18
2019-03-08T03:36:22.113Z,9.12
2019-03-08T03:37:22.093Z,9.22
2019-03-08T03:38:22.079Z,9.15
2019-03-08T03:39:22.051Z,9.14
2019-03-08T03:40:22.046Z,9.14
2019-03-08T03:41:22.011Z,9.16
2019-03-08T03:42:21.990Z,9.19
2019-03-08T03:43:21.973Z,9.18
2019-03-08T03:44:21.993Z,9.18
2019-03-08T03:45:21.930Z,9.16
2019-03-08T03:46:21.909Z,9.15
2019-03-08T03:47:21.885Z,9.18
2019-03-08T03:48:21.864Z,9.15
2019-03-08T03:49:21.845Z,9.22
2019-03-08T03:50:21.822Z,9.19
2019-03-08T03:51:21.803Z,9.11
2019-03-08T03:52:21.782Z,8.99
2019-03-08T03:53:21.761Z,9.01
2019-03-08T03:54:21.739Z,9.01
2019-03-08T03:55:21.720Z,8.93
2019-03-08T03:56:21.695Z,9.09
2019-03-08T03:57:21.675Z,9.01
2019-03-08T03:58:21.656Z,9.08
2019-03-08T03:59:21.635Z,8.93
2019-03-08T04:00:21.618Z,9.08
2019-03-08T04:01:21.593Z,9.06
2019-03-08T04:02:22.241Z,9.11
2019-03-08T04:03:21.551Z,9.11
2019-03-08T04:04:21.529Z,9.04
2019-03-08T04:05:21.516Z,9.08
2019-03-08T04:06:21.491Z,9.08
2019-03-08T04:07:21.473Z,9.04
2019-03-08T04:08:21.446Z,9.09
2019-03-08T04:09:21.432Z,8.96
2019-03-08T04:10:21.408Z,8.96
2019-03-08T04:11:21.393Z,9.08
2019-03-08T04:12:21.364Z,9.04
2019-03-08T04:13:21.345Z,8.96
2019-03-08T04:14:21.334Z,9.03
2019-03-08T04:15:21.302Z,9.11
2019-03-08T04:16:21.281Z,9.11
2019-03-08T04:17:21.260Z,9.04
2019-03-08T04:18:21.240Z,9.06
2019-03-08T04:19:21.221Z,9.08
2019-03-08T04:20:21.197Z,9.04
2019-03-08T04:21:21.177Z,9.01
2019-03-08T04:22:21.157Z,8.96
2019-03-08T04:23:21.137Z,9.01
2019-03-08T04:24:21.117Z,9.01
2019-03-08T04:25:21.095Z,8.99
2019-03-08T04:26:21.087Z,9.04
2019-03-08T04:27:21.056Z,8.92
2019-03-08T04:28:21.041Z,8.96
2019-03-08T04:29:21.013Z,9.01
2019-03-08T04:30:20.996Z,8.99
2019-03-08T04:31:20.971Z,9.01
2019-03-08T04:32:20.948Z,9.01
2019-03-08T04:33:20.932Z,8.96
2019-03-08T04:34:20.910Z,8.99
2019-03-08T04:35:20.887Z,8.98
2019-03-08T04:36:20.869Z,8.98
2019-03-08T04:37:20.845Z,9.04
2019-03-08T04:38:20.825Z,8.98
2019-03-08T04:39:20.804Z,8.99
2019-03-08T04:40:20.785Z,8.96
2019-03-08T04:41:20.764Z,9.04
2019-03-08T04:42:20.747Z,8.93
2019-03-08T04:43:20.723Z,8.95
2019-03-08T04:44:20.702Z,8.92
2019-03-08T04:45:20.681Z,9.09
2019-03-08T04:46:20.657Z,9.03
2019-03-08T04:47:20.640Z,9.09
2019-03-08T04:48:20.618Z,9.04
2019-03-08T04:49:20.598Z,9.06
2019-03-08T04:50:20.580Z,9.01
2019-03-08T04:51:20.555Z,9.03
2019-03-08T04:52:20.534Z,9.03
2019-03-08T04:53:20.515Z,9.01
2019-03-08T04:54:20.498Z,8.92
2019-03-08T04:55:20.472Z,9.04
2019-03-08T04:56:20.452Z,9.03
2019-03-08T04:57:20.432Z,8.93
2019-03-08T04:58:20.411Z,9.04
2019-03-08T04:59:20.390Z,9.03
2019-03-08T05:00:20.372Z,9.03
2019-03-08T05:01:20.354Z,8.93
2019-03-08T05:02:20.328Z,8.99
2019-03-08T05:03:20.319Z,8.95
2019-03-08T05:04:20.288Z,8.95
2019-03-08T05:05:20.265Z,8.98
2019-03-08T05:06:20.243Z,9.04
2019-03-08T05:07:20.223Z,8.98
2019-03-08T05:08:20.203Z,8.95
2019-03-08T05:09:20.183Z,8.95
2019-03-08T05:10:20.163Z,8.89
2019-03-08T05:11:20.151Z,8.99
2019-03-08T05:12:20.119Z,8.98
2019-03-08T05:13:20.104Z,8.96
2019-03-08T05:14:20.078Z,8.95
2019-03-08T05:15:20.067Z,8.96
2019-03-08T05:16:20.037Z,9.03
2019-03-08T05:17:20.016Z,9.04
2019-03-08T05:18:19.998Z,9.01
2019-03-08T05:19:19.983Z,8.98
2019-03-08T05:20:19.958Z,9.03
2019-03-08T05:21:19.933Z,9.04
2019-03-08T05:22:19.916Z,9.04
2019-03-08T05:23:19.892Z,8.93
2019-03-08T05:24:19.870Z,8.95
2019-03-08T05:25:19.850Z,9.12
2019-03-08T05:26:19.828Z,9.11
2019-03-08T05:27:19.822Z,9.06
2019-03-08T05:28:19.789Z,9.03
2019-03-08T05:29:19.766Z,8.95
2019-03-08T05:30:19.746Z,8.96
2019-03-08T05:31:19.726Z,8.96
2019-03-08T05:32:19.713Z,9.11
2019-03-08T05:33:19.688Z,9.06
2019-03-08T05:34:19.666Z,9.06
2019-03-08T05:35:19.645Z,8.99
2019-03-08T05:36:19.623Z,8.96
2019-03-08T05:37:19.610Z,8.98
2019-03-08T05:38:19.583Z,9.01
2019-03-08T05:39:19.564Z,9.04
2019-03-08T05:40:19.539Z,9.04
2019-03-08T05:41:19.522Z,9.11
2019-03-08T05:42:19.500Z,9.01
2019-03-08T05:43:19.479Z,9.01
2019-03-08T05:44:19.459Z,9.04
2019-03-08T05:45:19.439Z,8.95
2019-03-08T05:46:19.420Z,9.04
2019-03-08T05:47:19.421Z,8.98
2019-03-08T05:48:19.378Z,8.99
2019-03-08T05:49:19.361Z,8.96
2019-03-08T05:50:19.335Z,9.03
2019-03-08T05:51:19.317Z,8.99
2019-03-08T05:52:19.289Z,8.99
2019-03-08T05:53:19.270Z,9.01
2019-03-08T05:54:19.250Z,8.98
2019-03-08T05:55:19.229Z,8.99
2019-03-08T05:56:19.212Z,8.95
2019-03-08T05:57:19.193Z,8.99
2019-03-08T05:58:19.167Z,8.88
2019-03-08T05:59:19.146Z,8.90
2019-03-08T06:00:19.125Z,8.96
2019-03-08T06:01:19.106Z,8.88
2019-03-08T06:02:19.085Z,8.92
2019-03-08T06:03:19.063Z,8.99
2019-03-08T06:04:19.042Z,8.98
2019-03-08T06:05:19.023Z,8.92
2019-03-08T06:06:19.002Z,8.96
2019-03-08T06:07:18.981Z,8.99
2019-03-08T06:08:18.961Z,8.96
2019-03-08T06:09:18.938Z,8.98
2019-03-08T06:10:18.927Z,9.01
2019-03-08T06:11:18.900Z,8.98
2019-03-08T06:12:18.875Z,9.01
2019-03-08T06:13:18.856Z,8.98
2019-03-08T06:14:18.840Z,8.99
2019-03-08T06:15:18.816Z,8.95
2019-03-08T06:16:18.791Z,8.98
2019-03-08T06:17:18.772Z,8.92
2019-03-08T06:18:18.752Z,8.92
2019-03-08T06:19:18.730Z,9.04
2019-03-08T06:20:18.713Z,8.95
2019-03-08T06:21:18.690Z,9.04
2019-03-08T06:22:18.673Z,8.98
2019-03-08T06:23:18.656Z,8.96
2019-03-08T06:24:18.625Z,9.06
2019-03-08T06:25:18.605Z,9.01
2019-03-08T06:26:18.585Z,9.08
2019-03-08T06:27:18.565Z,9.06
2019-03-08T06:28:18.543Z,9.06
2019-03-08T06:29:18.524Z,9.03
2019-03-08T06:30:18.506Z,9.03
2019-03-08T06:31:18.484Z,8.98
2019-03-08T06:32:18.460Z,9.01
2019-03-08T06:33:18.444Z,9.09
2019-03-08T06:34:18.419Z,9.08
2019-03-08T06:35:18.404Z,8.98
2019-03-08T06:36:18.376Z,8.95
2019-03-08T06:37:18.381Z,9.04
2019-03-08T06:38:18.336Z,9.04
2019-03-08T06:39:18.318Z,9.04
2019-03-08T06:40:18.294Z,9.09
2019-03-08T06:41:18.276Z,9.04
2019-03-08T06:42:18.260Z,8.98
2019-03-08T06:43:18.237Z,9.08
2019-03-08T06:44:18.212Z,9.11
2019-03-08T06:45:18.193Z,8.96
2019-03-08T06:46:18.174Z,8.95
2019-03-08T06:47:18.154Z,9.06
2019-03-08T06:48:18.141Z,9.08
2019-03-08T06:49:18.109Z,9.11
2019-03-08T06:50:18.097Z,9.12
2019-03-08T06:51:18.067Z,9.12
2019-03-08T06:52:18.046Z,9.04
2019-03-08T06:53:18.027Z,9.03
2019-03-08T06:54:18.008Z,8.99
2019-03-08T06:55:17.994Z,9.01
2019-03-08T06:56:17.966Z,8.96
2019-03-08T06:57:17.941Z,9.01
2019-03-08T06:58:17.923Z,9.04
2019-03-08T06:59:17.900Z,9.06
2019-03-08T07:00:17.882Z,9.03
2019-03-08T07:01:17.859Z,9.01
2019-03-08T07:02:17.839Z,8.95
2019-03-08T07:03:17.818Z,8.96
2019-03-08T07:04:17.807Z,8.93
2019-03-08T07:05:17.777Z,8.96
2019-03-08T07:06:17.763Z,9.08
2019-03-08T07:07:17.741Z,9.06
2019-03-08T07:08:17.724Z,9.15
2019-03-08T07:09:17.699Z,9.08
2019-03-08T07:10:17.678Z,9.08
2019-03-08T07:11:17.657Z,9.08
2019-03-08T07:12:17.633Z,9.01
2019-03-08T07:13:17.626Z,9.04
2019-03-08T07:14:17.593Z,8.99
2019-03-08T07:15:17.574Z,8.96
2019-03-08T07:16:17.557Z,8.98
2019-03-08T07:17:17.533Z,8.96
2019-03-08T07:18:17.516Z,8.98
2019-03-08T07:19:17.489Z,8.95
2019-03-08T07:20:17.471Z,9.06
2019-03-08T07:21:17.445Z,8.95
2019-03-08T07:22:17.429Z,8.99
2019-03-08T07:23:17.409Z,9.01
2019-03-08T07:24:17.389Z,9.01
2019-03-08T07:25:17.363Z,9.09
2019-03-08T07:26:17.344Z,8.95
2019-03-08T07:27:17.321Z,9.01
2019-03-08T07:28:17.301Z,9.09
2019-03-08T07:29:17.292Z,9.14
2019-03-08T07:30:17.264Z,9.12
2019-03-08T07:31:17.241Z,9.16
2019-03-08T07:32:17.641Z,9.23
2019-03-08T07:33:17.200Z,9.14
2019-03-08T07:34:17.178Z,9.14
2019-03-08T07:35:17.202Z,9.19
2019-03-08T07:36:17.138Z,9.19
2019-03-08T07:37:17.130Z,9.18
2019-03-08T07:38:17.097Z,9.19
2019-03-08T07:39:17.089Z,9.19
2019-03-08T07:40:17.061Z,9.26
2019-03-08T07:41:17.039Z,9.24
2019-03-08T07:42:17.015Z,9.30
2019-03-08T07:43:17.006Z,9.24
2019-03-08T07:44:16.984Z,9.30
2019-03-08T07:45:16.956Z,9.44
2019-03-08T07:46:16.934Z,9.29
2019-03-08T07:47:16.912Z,9.36
2019-03-08T07:48:16.895Z,9.33
2019-03-08T07:49:16.870Z,9.33
2019-03-08T07:50:16.851Z,9.36
2019-03-08T07:51:16.830Z,9.32
2019-03-08T07:52:16.809Z,9.32
2019-03-08T07:53:16.789Z,9.37
2019-03-08T07:54:16.769Z,9.44
2019-03-08T07:55:16.748Z,9.55
2019-03-08T07:56:16.733Z,9.60
2019-03-08T07:57:16.711Z,9.83
2019-03-08T07:58:16.690Z,9.94
2019-03-08T07:59:16.671Z,10.20
2019-03-08T08:00:16.649Z,10.36
2019-03-08T08:01:16.640Z,11.23
2019-03-08T08:02:16.615Z,12.04
2019-03-08T08:03:16.594Z,12.05
2019-03-08T08:04:16.577Z,11.45
2019-03-08T08:05:16.559Z,11.48
2019-03-08T08:06:16.544Z,11.13
2019-03-08T08:07:16.531Z,11.04
2019-03-08T08:08:16.509Z,10.68
2019-03-08T08:09:16.491Z,10.42
2019-03-08T08:10:16.470Z,10.36
2019-03-08T08:11:16.453Z,10.27
2019-03-08T08:12:16.438Z,10.14
2019-03-08T08:13:16.423Z,10.24
2019-03-08T08:14:16.397Z,10.65
2019-03-08T08:15:16.393Z,10.58
2019-03-08T08:16:16.362Z,10.54
2019-03-08T08:17:16.360Z,10.49
2019-03-08T08:18:16.327Z,10.43
2019-03-08T08:19:16.310Z,10.41
2019-03-08T08:20:16.819Z,10.41
2019-03-08T08:21:16.274Z,10.41
2019-03-08T08:22:16.253Z,10.39
2019-03-08T08:23:16.239Z,10.79
2019-03-08T08:24:16.220Z,10.95
2019-03-08T08:25:16.203Z,10.94
2019-03-08T08:26:16.183Z,11.41
2019-03-08T08:27:16.167Z,12.87
2019-03-08T08:28:16.150Z,13.88
2019-03-08T08:29:16.130Z,14.38
2019-03-08T08:30:16.121Z,14.26
2019-03-08T08:31:16.106Z,14.36
2019-03-08T08:32:16.087Z,14.12
2019-03-08T08:33:16.831Z,14.69
2019-03-08T08:34:16.064Z,14.41
2019-03-08T08:35:16.056Z,15.65
2019-03-08T08:36:16.034Z,16.24
2019-03-08T08:37:16.028Z,15.77
2019-03-08T08:38:16.012Z,15.05
2019-03-08T08:39:16.005Z,14.40
2019-03-08T08:40:15.990Z,13.58
2019-03-08T08:41:15.978Z,12.65
2019-03-08T08:42:15.964Z,12.05
2019-03-08T08:43:15.957Z,11.62
2019-03-08T08:44:15.939Z,11.49
2019-03-08T08:45:15.925Z,11.23
2019-03-08T08:46:15.914Z,11.16
2019-03-08T08:47:15.896Z,10.98
2019-03-08T08:48:15.882Z,10.93
2019-03-08T08:49:15.865Z,10.73
2019-03-08T08:50:15.851Z,10.75
2019-03-08T08:51:15.835Z,10.70
2019-03-08T08:52:15.815Z,10.67
2019-03-08T08:53:15.802Z,10.61
2019-03-08T08:54:15.799Z,10.79
2019-03-08T08:55:15.771Z,10.78
2019-03-08T08:56:15.752Z,10.58
2019-03-08T08:57:15.735Z,10.45
2019-03-08T08:58:15.720Z,10.39
2019-03-08T08:59:15.703Z,10.42
2019-03-08T09:00:15.690Z,10.31
2019-03-08T09:01:15.667Z,10.34
2019-03-08T09:02:15.653Z,10.28
2019-03-08T09:03:15.631Z,9.98
2019-03-08T09:04:15.620Z,9.99
2019-03-08T09:05:15.597Z,9.87
2019-03-08T09:06:15.577Z,10.01
2019-03-08T09:07:15.570Z,10.12
2019-03-08T09:08:15.547Z,10.09
2019-03-08T09:09:15.524Z,10.20
2019-03-08T09:10:15.506Z,10.23
2019-03-08T09:11:15.492Z,10.03
2019-03-08T09:12:15.473Z,10.02
2019-03-08T09:13:15.451Z,10.09
2019-03-08T09:14:15.433Z,10.23
2019-03-08T09:15:15.421Z,10.31
2019-03-08T09:16:15.395Z,10.46
2019-03-08T09:17:15.382Z,10.76
2019-03-08T09:18:15.360Z,10.60
2019-03-08T09:19:15.342Z,10.43
2019-03-08T09:20:15.325Z,10.45
2019-03-08T09:21:15.306Z,10.41
2019-03-08T09:22:15.292Z,10.31
2019-03-08T09:23:15.272Z,10.34
2019-03-08T09:24:15.253Z,10.30
2019-03-08T09:25:15.240Z,10.24
2019-03-08T09:26:15.217Z,10.20
2019-03-08T09:27:15.198Z,10.06
2019-03-08T09:28:15.175Z,10.05
2019-03-08T09:29:15.159Z,9.93
2019-03-08T09:30:15.140Z,9.87
2019-03-08T09:31:15.119Z,9.98
2019-03-08T09:32:15.099Z,9.90
2019-03-08T09:33:15.080Z,9.90
2019-03-08T09:34:15.062Z,9.99
2019-03-08T09:35:15.048Z,10.03
2019-03-08T09:36:15.020Z,10.20
2019-03-08T09:37:15.004Z,10.73
2019-03-08T09:38:14.985Z,11.54
2019-03-08T09:39:14.970Z,12.55
2019-03-08T09:40:14.956Z,13.72
2019-03-08T09:41:14.936Z,14.92
2019-03-08T09:42:14.920Z,15.54
2019-03-08T09:43:14.908Z,16.02
2019-03-08T09:44:14.886Z,16.42
2019-03-08T09:45:14.869Z,16.69
2019-03-08T09:46:14.858Z,16.84
2019-03-08T09:47:14.839Z,17.46
2019-03-08T09:48:14.836Z,17.86
2019-03-08T09:49:14.817Z,17.32
2019-03-08T09:50:14.803Z,16.46
2019-03-08T09:51:14.801Z,17.49
2019-03-08T09:52:14.778Z,17.52
2019-03-08T09:53:14.763Z,17.19
2019-03-08T09:54:14.751Z,16.57
2019-03-08T09:55:14.744Z,17.30
2019-03-08T09:56:14.727Z,15.87
2019-03-08T09:57:14.719Z,15.95
2019-03-08T09:58:14.709Z,16.58
2019-03-08T09:59:14.694Z,15.45
2019-03-08T10:00:14.682Z,14.78
2019-03-08T10:01:16.800Z,15.63
2019-03-08T10:02:14.657Z,15.47
2019-03-08T10:03:14.655Z,15.48
2019-03-08T10:04:14.635Z,14.99
2019-03-08T10:05:14.621Z,15.17
2019-03-08T10:06:14.608Z,15.95
2019-03-08T10:07:14.601Z,16.21
2019-03-08T10:08:14.593Z,16.34
2019-03-08T10:09:14.570Z,17.14
2019-03-08T10:10:14.571Z,17.53
2019-03-08T10:11:14.548Z,17.52
2019-03-08T10:12:14.537Z,17.73
2019-03-08T10:13:14.525Z,18.11
2019-03-08T10:14:14.512Z,18.56
2019-03-08T10:15:14.503Z,18.67
2019-03-08T10:16:14.501Z,18.63
2019-03-08T10:17:14.484Z,18.66
2019-03-08T10:18:14.480Z,18.11
2019-03-08T10:19:14.458Z,17.68
2019-03-08T10:20:14.442Z,17.04
2019-03-08T10:21:14.443Z,17.17
2019-03-08T10:22:14.422Z,17.72
2019-03-08T10:23:19.867Z,16.90
2019-03-08T10:24:14.416Z,16.51
2019-03-08T10:25:14.385Z,16.10
2019-03-08T10:26:14.376Z,15.56
2019-03-08T10:27:14.646Z,15.11
2019-03-08T10:28:14.382Z,14.92
2019-03-08T10:29:14.343Z,14.82
2019-03-08T10:30:14.337Z,14.44
2019-03-08T10:31:14.317Z,14.36
2019-03-08T10:32:14.303Z,14.59
2019-03-08T10:33:14.295Z,15.19
2019-03-08T10:34:14.275Z,15.73
2019-03-08T10:35:23.278Z,15.54
2019-03-08T10:36:14.249Z,15.11
2019-03-08T10:37:14.235Z,14.89
2019-03-08T10:38:22.408Z,14.55
2019-03-08T10:39:14.208Z,14.46
2019-03-08T10:40:14.195Z,14.34
2019-03-08T10:41:14.185Z,14.18
2019-03-08T10:42:14.168Z,13.97
2019-03-08T10:43:14.156Z,14.00
2019-03-08T10:44:15.571Z,13.82
2019-03-08T10:45:14.126Z,13.58
2019-03-08T10:46:15.942Z,13.47
2019-03-08T10:47:14.096Z,14.12
2019-03-08T10:48:14.081Z,14.23
2019-03-08T10:49:14.066Z,14.13
2019-03-08T10:50:14.050Z,14.04
2019-03-08T10:51:14.039Z,14.15
2019-03-08T10:52:17.744Z,13.90
2019-03-08T10:53:14.014Z,13.98
2019-03-08T10:54:13.997Z,14.28
2019-03-08T10:55:13.975Z,14.64
2019-03-08T10:56:13.968Z,15.25
2019-03-08T10:57:13.945Z,15.38
2019-03-08T10:58:13.936Z,15.52
2019-03-08T10:59:13.920Z,15.95
2019-03-08T11:00:13.900Z,15.68
2019-03-08T11:01:13.888Z,15.47
2019-03-08T11:02:13.879Z,15.56
2019-03-08T11:03:13.864Z,15.43
2019-03-08T11:04:14.844Z,15.30
2019-03-08T11:05:13.838Z,14.96
2019-03-08T11:06:13.816Z,14.78
2019-03-08T11:07:13.799Z,14.69
2019-03-08T11:08:13.782Z,14.44
2019-03-08T11:09:13.770Z,14.40
2019-03-08T11:10:13.763Z,14.49
2019-03-08T11:11:13.745Z,14.31
2019-03-08T11:12:13.735Z,13.97
2019-03-08T11:13:13.711Z,13.97
2019-03-08T11:14:13.702Z,13.78
2019-03-08T11:15:13.678Z,13.71
2019-03-08T11:16:13.673Z,13.61
2019-03-08T11:17:13.649Z,13.19
2019-03-08T11:18:13.638Z,12.84
2019-03-08T11:19:13.618Z,12.53
2019-03-08T11:20:13.602Z,12.76
2019-03-08T11:21:14.960Z,13.01
2019-03-08T11:22:13.576Z,13.36
2019-03-08T11:23:13.574Z,13.51
2019-03-08T11:24:13.541Z,13.47
2019-03-08T11:25:13.534Z,13.49
2019-03-08T11:26:13.522Z,13.29
2019-03-08T11:27:13.498Z,13.47
2019-03-08T11:28:20.875Z,13.76
2019-03-08T11:29:13.465Z,13.91
2019-03-08T11:30:13.448Z,14.18
2019-03-08T11:31:13.441Z,14.09
2019-03-08T11:32:22.478Z,14.05
2019-03-08T11:33:13.403Z,14.19
2019-03-08T11:34:13.398Z,13.94
2019-03-08T11:35:13.372Z,14.00
2019-03-08T11:36:13.358Z,13.79
2019-03-08T11:37:13.358Z,13.90
2019-03-08T11:38:13.332Z,13.83
2019-03-08T11:39:13.321Z,13.78
2019-03-08T11:40:13.298Z,13.85
2019-03-08T11:41:14.613Z,13.97
2019-03-08T11:42:13.269Z,14.03
2019-03-08T11:43:13.249Z,14.08
2019-03-08T11:44:13.232Z,13.71
2019-03-08T11:45:13.220Z,13.85
2019-03-08T11:46:13.211Z,13.91
2019-03-08T11:47:13.186Z,13.72
2019-03-08T11:48:13.173Z,13.45
2019-03-08T11:49:13.153Z,13.29
2019-03-08T11:50:13.142Z,13.20
2019-03-08T11:51:13.127Z,13.23
2019-03-08T11:52:13.109Z,13.26
2019-03-08T11:53:13.089Z,13.16
2019-03-08T11:54:13.079Z,13.20
2019-03-08T11:55:13.058Z,13.14
2019-03-08T11:56:13.040Z,13.05
2019-03-08T11:57:13.026Z,12.77
2019-03-08T11:58:13.014Z,12.62
2019-03-08T11:59:12.993Z,12.41
2019-03-08T12:00:12.979Z,12.03
2019-03-08T12:01:12.958Z,11.71
2019-03-08T12:02:12.943Z,11.45
2019-03-08T12:03:12.929Z,11.01
2019-03-08T12:04:12.919Z,10.94
2019-03-08T12:05:12.891Z,10.97
2019-03-08T12:06:12.873Z,10.90
2019-03-08T12:07:12.862Z,10.70
2019-03-08T12:08:12.837Z,10.45
2019-03-08T12:09:12.823Z,10.36
2019-03-08T12:10:12.812Z,10.30
2019-03-08T12:11:12.784Z,10.28
2019-03-08T12:12:12.768Z,10.23
2019-03-08T12:13:12.753Z,10.18
2019-03-08T12:14:12.734Z,10.27
2019-03-08T12:15:14.455Z,10.41
2019-03-08T12:16:12.697Z,10.35
2019-03-08T12:17:12.677Z,10.39
2019-03-08T12:18:12.660Z,10.41
2019-03-08T12:19:12.641Z,10.43
2019-03-08T12:20:12.625Z,10.62
2019-03-08T12:21:12.606Z,10.60
2019-03-08T12:22:12.585Z,10.83
2019-03-08T12:23:12.567Z,10.90
2019-03-08T12:24:12.550Z,11.16
2019-03-08T12:25:12.534Z,11.49
2019-03-08T12:26:12.522Z,11.51
2019-03-08T12:27:12.503Z,11.61
2019-03-08T12:28:12.502Z,11.74
2019-03-08T12:29:12.476Z,11.91
2019-03-08T12:30:12.447Z,11.95
2019-03-08T12:31:12.434Z,12.04
2019-03-08T12:32:12.423Z,12.22
2019-03-08T12:33:12.407Z,12.47
2019-03-08T12:34:12.381Z,12.47
2019-03-08T12:35:12.363Z,12.54
2019-03-08T12:36:12.344Z,12.51
2019-03-08T12:37:12.320Z,12.54
2019-03-08T12:38:12.311Z,12.50
2019-03-08T12:39:12.287Z,12.54
2019-03-08T12:40:12.281Z,12.47
2019-03-08T12:41:12.251Z,12.40
2019-03-08T12:42:12.236Z,12.22
2019-03-08T12:43:12.214Z,12.17
2019-03-08T12:44:12.196Z,12.21
2019-03-08T12:45:12.180Z,12.21
2019-03-08T12:46:12.163Z,11.96
2019-03-08T12:47:12.145Z,12.00
2019-03-08T12:48:12.127Z,12.13
2019-03-08T12:49:12.109Z,12.05
2019-03-08T12:50:12.092Z,12.11
2019-03-08T12:51:12.071Z,12.14
2019-03-08T12:52:12.062Z,11.99
2019-03-08T12:53:12.035Z,11.95
2019-03-08T12:54:12.029Z,11.97
2019-03-08T12:55:12.004Z,11.88
2019-03-08T12:56:11.985Z,11.87
2019-03-08T12:57:11.964Z,11.87
2019-03-08T12:58:11.945Z,11.84
2019-03-08T12:59:11.932Z,11.87
2019-03-08T13:00:11.911Z,11.77
2019-03-08T13:01:11.899Z,11.64
2019-03-08T13:02:11.874Z,11.59
2019-03-08T13:03:11.860Z,11.45
2019-03-08T13:04:11.842Z,11.51
2019-03-08T13:05:11.820Z,11.51
2019-03-08T13:06:11.804Z,11.59
2019-03-08T13:07:11.785Z,11.64
2019-03-08T13:08:11.776Z,11.74